Time;durP1;ratioP1;P1;durP2;ratioP2;P2;SDS_P1;SDS_P2;PMS_P1;PMS_P2;Temp;Humidity;BMP_temperature;BMP_pressure;BME280_temperature;BME280_humidity;BME280_pressure;Samples;Min_cycle;Max_cycle;Signal;HPM_P1;HPM_P2
2021/12/07 00:00:24;;;;;;;17.35;8.13;;;;;;;-3.31;77.70;99584.78;4851120;29;20590;-73
2021/12/07 00:02:50;;;;;;;18.95;9.30;;;;;;;-3.34;77.79;99580.47;4829533;29;20511;-72
2021/12/07 00:05:16;;;;;;;22.42;10.77;;;;;;;-3.44;77.49;99578.91;4844782;29;20078;-71
2021/12/07 00:07:43;;;;;;;19.15;10.60;;;;;;;-3.43;78.33;99580.63;4861238;29;20100;-71
2021/12/07 00:10:08;;;;;;;24.30;10.30;;;;;;;-3.33;77.83;99570.91;4861800;29;20419;-72
2021/12/07 00:12:37;;;;;;;15.80;9.10;;;;;;;-3.29;77.88;99567.38;4844407;29;20032;-72
2021/12/07 00:15:03;;;;;;;26.55;13.43;;;;;;;-3.39;78.18;99577.13;4861295;29;20407;-71
2021/12/07 00:17:32;;;;;;;28.17;13.25;;;;;;;-3.38;77.67;99576.19;4861164;29;20040;-71
2021/12/07 00:19:58;;;;;;;25.58;13.05;;;;;;;-3.36;78.18;99565.75;4844501;29;20048;-72
2021/12/07 00:22:23;;;;;;;19.17;9.60;;;;;;;-3.32;77.99;99564.81;4844157;29;20049;-72
2021/12/07 00:24:48;;;;;;;17.70;7.18;;;;;;;-3.30;77.88;99548.28;4860476;29;20410;-73
2021/12/07 00:27:13;;;;;;;23.90;11.75;;;;;;;-3.26;78.08;99541.25;4862076;29;20047;-72
2021/12/07 00:29:39;;;;;;;17.20;9.00;;;;;;;-3.17;78.15;99537.63;4844254;29;20123;-72
2021/12/07 00:35:33;;;;;;;19.75;11.27;;;;;;;-3.25;76.98;99534.28;4843638;29;20923;-72
2021/12/07 00:37:35;;;;;;;18.25;7.65;;;;;;;-3.28;78.44;99522.19;4836135;29;20444;-71
2021/12/07 00:40:03;;;;;;;23.13;11.85;;;;;;;-3.30;77.60;99518.75;4860117;29;20500;-69
2021/12/07 00:42:28;;;;;;;20.38;11.23;;;;;;;-3.42;78.35;99519.81;4843371;29;20052;-70
2021/12/07 00:44:54;;;;;;;23.40;11.32;;;;;;;-3.39;78.34;99525.00;4818001;29;20040;-71
2021/12/07 00:47:18;;;;;;;19.58;8.80;;;;;;;-3.28;78.73;99523.94;4851772;29;20045;-72
2021/12/07 00:49:44;;;;;;;18.52;8.75;;;;;;;-3.24;78.59;99522.97;4832955;29;20049;-74
2021/12/07 00:52:09;;;;;;;22.42;11.98;;;;;;;-3.37;78.39;99507.56;4843392;29;20048;-73
2021/12/07 00:54:35;;;;;;;14.65;6.72;;;;;;;-3.30;78.73;99498.75;4860166;29;20412;-73
2021/12/07 00:57:02;;;;;;;20.38;10.60;;;;;;;-3.41;79.25;99500.69;4843123;29;20055;-72
2021/12/07 00:59:26;;;;;;;17.73;8.02;;;;;;;-3.41;78.84;99505.91;4841761;29;20522;-73
2021/12/07 01:01:52;;;;;;;17.50;9.82;;;;;;;-3.42;79.00;99498.97;4828570;29;20488;-71
2021/12/07 01:04:17;;;;;;;24.05;12.00;;;;;;;-3.28;79.10;99490.91;4843421;29;20045;-73
2021/12/07 01:07:01;;;;;;;14.07;6.97;;;;;;;-3.09;78.91;99496.63;4844209;29;20055;-73
2021/12/07 01:25:37;;;;;;;14.93;8.35;;;;;;;-2.96;77.97;99480.72;4858110;29;20059;-74
2021/12/07 01:28:10;;;;;;;11.90;5.63;;;;;;;-3.04;78.22;99479.13;4861466;29;20135;-71
2021/12/07 01:30:42;;;;;;;17.95;8.68;;;;;;;-2.96;77.73;99469.44;4860674;29;20044;-72
2021/12/07 01:36:19;;;;;;;18.77;8.95;;;;;;;-3.05;77.91;99467.00;4844890;29;20360;-73
2021/12/07 01:59:35;;;;;;;11.40;5.65;;;;;;;-2.97;77.89;99431.22;4788933;29;20054;-72
2021/12/07 02:02:07;;;;;;;14.07;7.57;;;;;;;-2.99;78.38;99420.81;4773955;29;20121;-69
2021/12/07 02:04:32;;;;;;;10.05;6.13;;;;;;;-3.04;78.91;99422.63;4760149;29;20057;-69
2021/12/07 02:06:58;;;;;;;17.95;10.80;;;;;;;-3.02;78.22;99420.84;4758816;29;20050;-70
2021/12/07 02:09:24;;;;;;;18.85;9.40;;;;;;;-3.03;78.98;99413.06;4789932;29;20128;-70
2021/12/07 02:11:57;;;;;;;16.50;9.68;;;;;;;-2.96;78.75;99412.06;4775220;29;20490;-69
2021/12/07 02:14:22;;;;;;;20.02;10.82;;;;;;;-2.91;78.58;99407.59;4759640;29;20050;-67
2021/12/07 02:16:52;;;;;;;22.55;10.82;;;;;;;-2.96;79.19;99417.28;4774284;29;20058;-67
2021/12/07 02:19:18;;;;;;;22.23;11.43;;;;;;;-2.99;78.82;99412.97;4774066;29;20058;-67
2021/12/07 02:21:44;;;;;;;16.63;8.45;;;;;;;-3.03;79.66;99407.84;4759439;29;20144;-66
2021/12/07 02:24:16;;;;;;;19.05;10.45;;;;;;;-3.08;79.10;99402.75;4774420;29;20042;-66
2021/12/07 02:26:41;;;;;;;26.05;13.48;;;;;;;-3.02;79.72;99400.00;4773647;29;20058;-66
2021/12/07 02:29:06;;;;;;;18.52;11.30;;;;;;;-3.00;79.87;99389.53;4837675;29;20056;-68
2021/12/07 02:31:33;;;;;;;20.20;9.90;;;;;;;-3.05;79.69;99388.78;4863011;29;20131;-67
2021/12/07 02:33:58;;;;;;;25.58;11.90;;;;;;;-2.91;79.79;99399.78;4846230;29;20052;-69
2021/12/07 02:36:24;;;;;;;21.40;9.95;;;;;;;-2.88;79.39;99380.59;4846484;29;20052;-68
2021/12/07 02:38:50;;;;;;;23.42;12.52;;;;;;;-2.93;79.58;99381.53;4830473;29;20192;-68
2021/12/07 02:41:16;;;;;;;20.75;10.43;;;;;;;-2.89;80.06;99378.88;4849332;29;20127;-68
2021/12/07 02:43:41;;;;;;;20.35;9.18;;;;;;;-2.78;80.13;99367.31;4848492;29;20136;-68
2021/12/07 02:46:06;;;;;;;11.93;7.05;;;;;;;-2.61;78.77;99373.03;4849504;29;20430;-69
2021/12/07 02:48:32;;;;;;;21.15;9.25;;;;;;;-2.70;79.18;99385.41;4846948;29;20047;-69
2021/12/07 02:51:00;;;;;;;19.05;9.43;;;;;;;-2.72;78.72;99369.81;4846600;29;20053;-69
2021/12/07 02:53:28;;;;;;;20.35;10.48;;;;;;;-2.80;79.16;99365.63;4864085;29;20055;-66
2021/12/07 02:55:56;;;;;;;5.95;3.97;;;;;;;-2.70;79.35;99375.81;4846823;29;20120;-68
2021/12/07 02:58:21;;;;;;;16.42;9.95;;;;;;;-2.82;79.48;99357.81;4846959;29;20053;-68
2021/12/07 03:00:57;;;;;;;15.00;8.43;;;;;;;-2.77;79.29;99369.03;4831372;29;20041;-67
2021/12/07 03:03:23;;;;;;;11.68;6.00;;;;;;;-2.58;79.17;99357.28;4831268;29;20044;-67
2021/12/07 03:27:30;;;;;;;;;;;;;;;-2.52;79.11;99293.66;4846805;29;20052;-63
2021/12/07 03:29:55;;;;;;;13.18;7.72;;;;;;;-2.62;79.46;99285.19;4846332;29;20033;-62
2021/12/07 03:32:20;;;;;;;10.57;5.85;;;;;;;-2.49;78.96;99288.38;4827546;29;20546;-61
2021/12/07 03:34:45;;;;;;;8.13;4.85;;;;;;;-2.59;79.17;99286.84;4843358;29;20456;-60
2021/12/07 03:37:12;;;;;;;17.55;8.88;;;;;;;-2.66;79.92;99274.88;4843081;29;20562;-61
2021/12/07 03:39:36;;;;;;;10.35;7.00;;;;;;;-2.67;79.66;99276.63;4827750;29;20901;-60
2021/12/07 03:42:02;;;;;;;15.20;7.65;;;;;;;-2.55;79.97;99280.69;4843157;29;20428;-60
2021/12/07 03:44:26;;;;;;;9.95;6.85;;;;;;;-2.43;79.67;99279.53;4842854;29;20488;-60
2021/12/07 03:46:51;;;;;;;16.00;8.82;;;;;;;-2.45;79.17;99263.03;4827532;29;20518;-61
2021/12/07 03:49:16;;;;;;;10.18;6.45;;;;;;;-2.39;79.44;99274.19;4844058;29;20097;-61
2021/12/07 03:51:41;;;;;;;15.05;8.18;;;;;;;-2.44;79.02;99272.59;4843960;29;20130;-61
2021/12/07 03:54:06;;;;;;;10.88;5.20;;;;;;;-2.40;78.88;99263.78;4842730;29;20393;-61
2021/12/07 11:33:24;;;;;;;8.63;5.20;;;;;;;-0.59;81.14;98937.38;4898473;29;20560;-71
2021/12/07 11:35:49;;;;;;;7.82;4.90;;;;;;;-0.67;81.21;98936.78;4883740;29;20059;-67
2021/12/07 11:38:17;;;;;;;10.23;5.18;;;;;;;-0.67;80.99;98934.19;4883658;29;20501;-67
2021/12/07 11:40:42;;;;;;;8.00;5.38;;;;;;;-0.75;81.11;98936.25;4883577;29;20066;-66
2021/12/07 11:43:18;;;;;;;7.00;4.35;;;;;;;-0.63;81.51;98940.16;4900732;29;20532;-68
2021/12/07 11:45:45;;;;;;;13.05;5.53;;;;;;;-0.67;81.42;98931.56;4867560;29;20126;-67
2021/12/07 11:48:10;;;;;;;7.10;4.72;;;;;;;-0.68;81.54;98937.75;4883568;29;20063;-67
2021/12/07 11:50:43;;;;;;;8.35;5.38;;;;;;;-0.63;81.49;98935.78;4900137;29;20043;-67
2021/12/07 11:53:21;;;;;;;8.65;3.95;;;;;;;-0.57;81.50;98935.56;4900486;29;20860;-67
2021/12/07 11:55:51;;;;;;;8.20;4.82;;;;;;;-0.60;81.76;98942.69;4900108;29;20047;-69
2021/12/07 11:58:17;;;;;;;10.05;5.40;;;;;;;-0.63;81.54;98940.16;4900317;29;20047;-70
2021/12/07 12:00:45;;;;;;;7.68;5.38;;;;;;;-0.56;81.69;98937.25;4882975;29;20039;-72
2021/12/07 12:03:14;;;;;;;8.75;4.88;;;;;;;-0.55;81.47;98944.19;4899943;29;20040;-71
2021/12/07 12:05:42;;;;;;;11.75;6.13;;;;;;;-0.57;81.45;98945.19;4883187;29;20047;-70
2021/12/07 12:08:09;;;;;;;7.93;4.75;;;;;;;-0.62;81.59;98954.97;4900058;29;20177;-66
2021/12/07 12:10:40;;;;;;;8.63;5.38;;;;;;;-0.56;81.65;98952.09;4882797;29;20039;-71
2021/12/07 12:13:23;;;;;;;8.40;5.18;;;;;;;-0.59;81.72;98945.25;4883217;29;20138;-66
2021/12/07 12:16:02;;;;;;;7.93;5.10;;;;;;;-0.64;81.83;98965.47;4899923;29;20099;-68
2021/12/07 12:18:46;;;;;;;7.07;5.30;;;;;;;-0.68;82.07;98963.91;4882852;29;20058;-65
2021/12/07 12:21:40;;;;;;;9.25;6.07;;;;;;;-0.65;82.14;98955.91;4882660;29;20043;-66
2021/12/07 12:24:29;;;;;;;12.85;6.10;;;;;;;-0.76;82.36;98958.94;4899239;29;20063;-66
2021/12/07 12:27:16;;;;;;;7.72;4.15;;;;;;;-0.58;82.25;98959.19;4882931;29;20135;-66
2021/12/07 12:29:43;;;;;;;8.70;5.78;;;;;;;-0.62;82.03;98968.91;4899696;29;20052;-66
2021/12/07 12:32:09;;;;;;;10.60;6.10;;;;;;;-0.64;82.10;98970.72;4899259;29;20067;-67
2021/12/07 12:34:37;;;;;;;8.38;5.15;;;;;;;-0.69;82.38;98974.44;4899493;29;20134;-70
2021/12/07 12:37:07;;;;;;;8.23;5.13;;;;;;;-0.62;82.47;98970.66;4899570;29;20048;-66
2021/12/07 12:40:01;;;;;;;8.10;5.78;;;;;;;-0.55;82.32;98975.59;4899592;29;20055;-65
2021/12/07 12:42:36;;;;;;;7.30;3.97;;;;;;;-0.43;82.13;98963.81;4882151;29;20054;-66
2021/12/07 12:45:35;;;;;;;6.03;4.60;;;;;;;-0.43;82.00;98969.91;4904749;29;20139;-67
2021/12/07 12:48:06;;;;;;;5.07;3.60;;;;;;;-0.42;81.92;98969.00;4890913;29;20047;-65
2021/12/07 12:50:45;;;;;;;7.35;4.68;;;;;;;-0.46;81.90;98970.06;4902978;29;20139;-66
2021/12/07 12:53:15;;;;;;;8.00;5.07;;;;;;;-0.59;82.02;98968.81;4900401;29;20080;-66
2021/12/07 12:55:52;;;;;;;6.55;4.70;;;;;;;-0.55;82.44;98959.03;4899392;29;20079;-65
2021/12/07 12:58:29;;;;;;;8.02;5.13;;;;;;;-0.62;82.66;98952.34;4882290;29;20054;-64
2021/12/07 13:01:16;;;;;;;6.90;4.57;;;;;;;-0.47;82.69;98960.50;4882307;29;20491;-66
2021/12/07 13:03:43;;;;;;;9.55;4.70;;;;;;;-0.53;82.42;98952.84;4899056;29;20047;-65
2021/12/07 13:06:15;;;;;;;8.02;4.90;;;;;;;-0.49;82.43;98945.75;4898447;29;20039;-66
2021/12/07 13:08:53;;;;;;;8.20;4.82;;;;;;;-0.43;82.50;98951.59;4870609;29;20428;-68
2021/12/07 13:11:52;;;;;;;8.52;5.22;;;;;;;-0.51;82.53;98951.03;4889704;29;20047;-69
2021/12/07 13:14:23;;;;;;;8.68;5.82;;;;;;;-0.46;82.61;98953.50;4889685;29;20051;-69
2021/12/07 13:16:51;;;;;;;12.32;5.30;;;;;;;-0.43;82.56;98951.59;4904326;29;20047;-70
2021/12/07 13:19:16;;;;;;;9.95;5.53;;;;;;;-0.39;82.40;98952.34;4907079;29;20049;-69
2021/12/07 13:21:45;;;;;;;11.75;6.50;;;;;;;-0.42;82.46;98947.19;4875964;29;20045;-69
2021/12/07 13:24:30;;;;;;;9.60;6.43;;;;;;;-0.47;82.76;98950.00;4908374;29;20048;-67
2021/12/07 13:26:54;;;;;;;9.05;6.85;;;;;;;-0.46;82.86;98954.34;4907408;29;20103;-68
2021/12/07 13:29:24;;;;;;;9.85;6.50;;;;;;;-0.48;83.02;98957.91;4891706;29;20043;-65
2021/12/07 13:31:55;;;;;;;9.20;5.95;;;;;;;-0.46;83.38;98961.34;4894015;29;20051;-65
2021/12/07 13:34:27;;;;;;;9.13;6.28;;;;;;;-0.39;83.07;98970.66;4906431;29;20063;-67
2021/12/07 13:37:04;;;;;;;9.55;5.45;;;;;;;-0.45;83.10;98961.25;4914884;29;20501;-65
2021/12/07 13:39:33;;;;;;;7.50;5.18;;;;;;;-0.47;83.33;98957.00;4907909;29;20055;-64
2021/12/07 13:42:16;;;;;;;11.80;6.57;;;;;;;-0.47;83.31;98963.09;4891297;29;20422;-67
2021/12/07 13:44:48;;;;;;;9.70;6.28;;;;;;;-0.46;83.71;98966.56;4897163;29;20098;-66
2021/12/07 13:47:15;;;;;;;12.63;6.93;;;;;;;-0.56;84.18;98959.94;4897738;29;21006;-66
2021/12/07 13:49:46;;;;;;;11.63;6.85;;;;;;;-0.54;84.50;98977.31;4880523;29;20126;-65
2021/12/07 13:52:22;;;;;;;11.13;6.40;;;;;;;-0.53;84.76;98973.78;4897340;29;20052;-66
2021/12/07 13:54:52;;;;;;;12.95;7.35;;;;;;;-0.51;84.72;98985.06;4884071;29;20052;-66
2021/12/07 13:57:20;;;;;;;14.43;7.60;;;;;;;-0.55;85.76;98988.69;4899872;29;20061;-65
2021/12/07 13:59:55;;;;;;;10.50;7.18;;;;;;;-0.50;85.10;98989.41;4868093;29;20146;-65
2021/12/07 14:02:24;;;;;;;15.70;7.10;;;;;;;-0.49;85.32;98988.50;4899902;29;20079;-65
2021/12/07 14:04:49;;;;;;;14.23;7.85;;;;;;;-0.52;85.80;98993.81;4899585;29;20080;-65
2021/12/07 14:07:17;;;;;;;12.80;7.35;;;;;;;-0.54;85.95;98995.66;4899721;29;20071;-67
2021/12/07 14:09:42;;;;;;;13.57;8.38;;;;;;;-0.55;86.42;98988.69;4897228;29;20146;-65
2021/12/07 14:12:07;;;;;;;13.52;7.80;;;;;;;-0.51;86.41;98985.06;4883131;29;20043;-66
2021/12/07 14:14:32;;;;;;;12.88;7.75;;;;;;;-0.47;86.40;98999.75;4882814;29;20048;-65
2021/12/07 14:16:59;;;;;;;12.35;8.00;;;;;;;-0.48;86.47;99000.66;4881569;29;20051;-65
2021/12/07 14:19:24;;;;;;;11.45;6.82;;;;;;;-0.46;86.42;99005.84;4881752;29;20134;-65
2021/12/07 14:21:50;;;;;;;15.35;7.95;;;;;;;-0.50;86.91;99006.88;4882880;29;20048;-64
2021/12/07 14:24:18;;;;;;;10.20;6.82;;;;;;;-0.47;86.91;99004.13;4882406;29;20056;-65
2021/12/07 14:26:43;;;;;;;10.50;6.78;;;;;;;-0.44;86.89;99004.84;4882450;29;20044;-66
2021/12/07 14:29:21;;;;;;;11.63;7.70;;;;;;;-0.42;87.08;99012.66;4882455;29;20054;-65
2021/12/07 14:31:52;;;;;;;16.55;8.55;;;;;;;-0.43;86.95;99014.44;4887603;29;20087;-66
2021/12/07 14:34:30;;;;;;;12.45;7.47;;;;;;;-0.41;87.13;99012.63;4901423;29;20044;-66
2021/12/07 14:37:02;;;;;;;13.10;7.28;;;;;;;-0.41;86.96;99007.38;4901380;29;20079;-65
2021/12/07 14:39:33;;;;;;;13.90;7.68;;;;;;;-0.45;87.28;99008.38;4901557;29;20040;-66
2021/12/07 14:42:03;;;;;;;13.23;8.63;;;;;;;-0.44;87.35;99004.84;4901288;29;20518;-66
2021/12/07 14:44:31;;;;;;;12.90;8.10;;;;;;;-0.41;87.17;99017.84;4883451;29;20047;-67
2021/12/07 14:47:00;;;;;;;14.38;8.73;;;;;;;-0.43;87.61;99010.94;4883860;29;20078;-65
2021/12/07 14:49:26;;;;;;;18.45;10.77;;;;;;;-0.46;87.71;99013.72;4901194;29;20510;-68
2021/12/07 14:51:51;;;;;;;15.02;9.52;;;;;;;-0.42;87.62;99010.91;4884146;29;20051;-67
2021/12/07 14:54:17;;;;;;;14.10;8.40;;;;;;;-0.37;87.42;99005.50;4884048;29;20051;-68
2021/12/07 14:56:42;;;;;;;16.92;8.50;;;;;;;-0.39;87.48;99017.78;4883967;29;20107;-68
2021/12/07 14:59:10;;;;;;;16.65;8.43;;;;;;;-0.35;87.39;99005.44;4901119;29;20048;-68
2021/12/07 15:01:42;;;;;;;16.00;8.43;;;;;;;-0.24;87.16;99011.13;4901965;29;20130;-67
2021/12/07 15:04:10;;;;;;;18.15;10.50;;;;;;;-0.28;86.70;99012.16;4898262;29;20087;-69
2021/12/07 15:06:35;;;;;;;17.75;9.55;;;;;;;-0.29;86.93;99010.44;4882804;29;20111;-71
2021/12/07 15:09:05;;;;;;;15.38;9.13;;;;;;;-0.26;86.65;99018.19;4900557;29;20047;-71
2021/12/07 15:11:29;;;;;;;16.05;8.70;;;;;;;-0.22;86.66;99002.28;4883420;29;20055;-69
2021/12/07 15:13:54;;;;;;;15.15;8.23;;;;;;;-0.16;85.80;98996.81;4900213;29;20039;-73
2021/12/07 15:16:19;;;;;;;22.92;10.02;;;;;;;-0.11;85.54;99001.88;4899893;29;20048;-71
2021/12/07 15:18:48;;;;;;;16.25;9.27;;;;;;;-0.17;85.54;98986.41;4883214;29;20043;-70
2021/12/07 15:21:19;;;;;;;17.23;10.00;;;;;;;-0.22;86.07;99001.44;4883206;29;20050;-69
2021/12/07 15:23:52;;;;;;;20.38;9.48;;;;;;;-0.26;86.50;98999.84;4900487;29;20047;-67
2021/12/07 15:26:21;;;;;;;20.60;11.07;;;;;;;-0.32;87.03;99000.06;4900124;29;20560;-71
2021/12/07 15:29:07;;;;;;;13.70;7.82;;;;;;;-0.24;87.54;99006.75;4883015;29;20044;-65
2021/12/07 15:31:38;;;;;;;15.88;9.43;;;;;;;-0.22;87.26;99004.91;4899490;29;20055;-67
2021/12/07 15:34:05;;;;;;;18.35;10.30;;;;;;;-0.27;87.65;99022.56;4882648;29;20071;-70
2021/12/07 15:36:33;;;;;;;14.60;8.05;;;;;;;-0.13;86.83;99022.91;4900443;29;20058;-68
2021/12/07 15:39:06;;;;;;;19.83;9.23;;;;;;;-0.18;87.36;99022.22;4899998;29;20051;-74
2021/12/07 15:41:31;;;;;;;15.82;9.27;;;;;;;-0.14;87.00;99018.59;4899136;29;20050;-68
2021/12/07 15:43:57;;;;;;;23.60;10.23;;;;;;;-0.16;86.99;99032.66;4866372;29;20063;-66
2021/12/07 15:46:22;;;;;;;22.83;13.38;;;;;;;-0.19;87.40;99015.28;4899359;29;20083;-68
2021/12/07 15:48:47;;;;;;;14.63;8.52;;;;;;;-0.10;87.22;99021.91;4883012;29;20110;-67
2021/12/07 15:51:13;;;;;;;20.90;10.43;;;;;;;-0.13;87.34;99019.44;4899146;29;20043;-67
2021/12/07 15:53:39;;;;;;;12.68;8.48;;;;;;;-0.08;87.18;99028.81;4899578;29;20103;-67
2021/12/07 15:56:06;;;;;;;16.50;8.45;;;;;;;-0.02;86.84;99020.72;4882953;29;20051;-67
2021/12/07 15:58:35;;;;;;;21.70;10.05;;;;;;;0.03;86.09;99024.94;4899270;29;20054;-66
2021/12/07 16:01:02;;;;;;;24.42;13.40;;;;;;;-0.10;86.85;99032.41;4899907;29;20043;-68
2021/12/07 16:03:31;;;;;;;21.45;13.55;;;;;;;-0.09;87.07;99037.59;4899209;29;20051;-67
2021/12/07 16:06:07;;;;;;;22.42;11.98;;;;;;;-0.06;87.06;99037.47;4849991;29;20455;-70
2021/12/07 16:08:35;;;;;;;21.92;12.57;;;;;;;-0.06;87.14;99040.09;4899674;29;20461;-71
2021/12/07 16:11:07;;;;;;;27.73;13.63;;;;;;;-0.07;86.93;99041.00;4899063;29;20047;-74
2021/12/07 16:13:35;;;;;;;23.17;11.88;;;;;;;-0.04;87.19;99037.41;4882539;29;20047;-71
2021/12/07 16:16:04;;;;;;;26.77;12.32;;;;;;;-0.02;87.30;99039.06;4883445;29;20051;-71
2021/12/07 16:18:33;;;;;;;27.30;15.23;;;;;;;0.07;86.70;99043.09;4882809;29;20054;-69
2021/12/07 16:21:00;;;;;;;31.30;15.63;;;;;;;-0.03;86.86;99053.09;4866505;29;20050;-71
2021/12/07 16:23:27;;;;;;;25.27;12.80;;;;;;;-0.01;87.26;99055.66;4882064;29;20055;-68
2021/12/07 16:25:54;;;;;;;24.80;13.40;;;;;;;0.02;87.23;99062.53;4882146;29;20140;-70
2021/12/07 16:28:19;;;;;;;20.90;12.48;;;;;;;0.01;87.38;99064.28;4898748;29;20476;-71
2021/12/07 16:30:44;;;;;;;21.58;10.00;;;;;;;0.05;86.81;99075.50;4899853;29;20207;-69
2021/12/07 16:33:12;;;;;;;18.05;11.68;;;;;;;0.05;86.75;99062.41;4898919;29;20142;-72
2021/12/07 16:35:38;;;;;;;21.30;11.60;;;;;;;0.02;87.16;99063.38;4883054;29;20048;-72
2021/12/07 16:38:04;;;;;;;18.33;10.73;;;;;;;0.03;87.53;99064.22;4898877;29;20075;-72
2021/12/07 16:40:29;;;;;;;20.38;11.15;;;;;;;0.03;88.02;99070.31;4898977;29;20130;-70
2021/12/07 16:42:59;;;;;;;17.20;10.35;;;;;;;0.07;87.73;99056.22;4881575;29;20047;-73
2021/12/07 16:45:36;;;;;;;19.00;10.48;;;;;;;0.08;87.88;99060.53;4868085;29;20091;-73
2021/12/07 16:48:02;;;;;;;15.55;9.02;;;;;;;0.10;87.60;99063.09;4898768;29;20082;-70
2021/12/07 16:50:28;;;;;;;17.42;9.88;;;;;;;0.11;87.37;99055.19;4899977;29;20095;-68
2021/12/07 16:53:09;;;;;;;21.50;10.23;;;;;;;0.16;87.36;99058.47;4889309;29;20043;-69
2021/12/07 16:55:38;;;;;;;20.58;11.35;;;;;;;0.12;87.18;99067.34;4847051;29;20051;-71
2021/12/07 16:58:04;;;;;;;17.42;9.52;;;;;;;0.09;87.28;99067.50;4880425;29;20178;-73
2021/12/07 17:00:30;;;;;;;18.90;9.15;;;;;;;0.09;87.29;99069.25;4863714;29;20047;-71
2021/12/07 17:02:58;;;;;;;15.55;9.60;;;;;;;0.09;87.46;99067.50;4864890;29;20074;-75
2021/12/07 17:05:27;;;;;;;18.92;11.18;;;;;;;0.13;87.50;99079.53;4886380;29;20150;-77
2021/12/07 17:07:53;;;;;;;16.17;9.50;;;;;;;0.16;88.14;99078.56;4901196;29;20073;-72
2021/12/07 17:10:22;;;;;;;23.38;9.82;;;;;;;0.17;87.98;99075.91;4901885;29;20138;-73
2021/12/07 17:12:47;;;;;;;16.67;8.98;;;;;;;0.17;87.85;99073.28;4899906;29;20047;-70
2021/12/07 17:15:15;;;;;;;17.67;9.80;;;;;;;0.21;88.41;99080.13;4899010;29;20043;-72
2021/12/07 17:17:43;;;;;;;19.30;9.75;;;;;;;0.21;87.70;99074.88;4898132;29;20052;-75
2021/12/07 17:20:10;;;;;;;15.73;8.90;;;;;;;0.22;87.99;99071.34;4897458;29;20466;-68
2021/12/07 17:22:36;;;;;;;22.15;10.48;;;;;;;0.21;87.64;99080.13;4881315;29;20050;-67
2021/12/07 17:25:07;;;;;;;15.73;9.57;;;;;;;0.23;87.93;99074.78;4881178;29;20051;-68
2021/12/07 17:27:35;;;;;;;12.05;7.93;;;;;;;0.24;87.89;99079.97;4896518;29;20085;-70
2021/12/07 17:30:01;;;;;;;19.17;10.05;;;;;;;0.25;87.74;99081.69;4898476;29;20550;-68
2021/12/07 17:32:27;;;;;;;19.63;9.57;;;;;;;0.26;88.08;99079.94;4881519;29;20052;-73
2021/12/07 17:34:55;;;;;;;18.90;9.15;;;;;;;0.28;88.09;99078.09;4897233;29;20418;-71
2021/12/07 17:37:20;;;;;;;22.48;9.77;;;;;;;0.26;88.18;99075.53;4881396;29;20048;-71
2021/12/07 17:39:48;;;;;;;16.23;10.07;;;;;;;0.29;88.03;99077.19;4896737;29;20059;-65
2021/12/07 17:42:16;;;;;;;18.15;9.20;;;;;;;0.35;88.11;99084.81;4896251;29;20047;-66
2021/12/07 17:44:41;;;;;;;17.98;9.57;;;;;;;0.38;87.99;99082.06;4880923;29;20059;-63
2021/12/07 17:47:07;;;;;;;18.70;10.75;;;;;;;0.38;88.14;99084.69;4896501;29;20180;-64
2021/12/07 17:49:34;;;;;;;23.88;11.73;;;;;;;0.42;88.07;99085.44;4897959;29;20146;-66
2021/12/07 17:52:04;;;;;;;21.23;11.25;;;;;;;0.42;87.99;99095.94;4897954;29;20044;-66
2021/12/07 17:54:30;;;;;;;23.05;12.60;;;;;;;0.41;88.11;99083.72;4896716;29;20805;-67
2021/12/07 17:56:56;;;;;;;25.00;12.73;;;;;;;0.38;87.73;99089.94;4862770;29;20568;-66
2021/12/07 17:59:22;;;;;;;21.92;11.95;;;;;;;0.40;87.72;99087.25;4864427;29;20047;-66
2021/12/07 18:01:49;;;;;;;20.30;11.02;;;;;;;0.43;87.67;99088.00;4888494;29;20051;-67
2021/12/07 18:04:14;;;;;;;22.48;12.43;;;;;;;0.46;87.64;99087.88;4832065;29;20066;-67
2021/12/07 18:06:44;;;;;;;25.92;12.80;;;;;;;0.45;87.29;99080.94;4897293;29;20067;-68
2021/12/07 18:09:09;;;;;;;31.98;14.35;;;;;;;0.42;87.20;99085.44;4896922;29;20398;-67
2021/12/07 18:11:37;;;;;;;28.50;16.33;;;;;;;0.40;87.16;99098.59;4879932;29;20438;-68
2021/12/07 18:14:04;;;;;;;34.08;16.42;;;;;;;0.39;87.09;99102.13;4880886;29;20541;-66
2021/12/07 18:16:29;;;;;;;29.25;12.38;;;;;;;0.41;87.20;99096.84;4896881;29;20036;-65
2021/12/07 18:18:57;;;;;;;29.67;12.90;;;;;;;0.43;87.07;99092.41;4849916;29;20896;-67
2021/12/07 18:21:35;;;;;;;23.35;12.25;;;;;;;0.47;87.32;99093.97;4881485;29;20578;-62
2021/12/07 18:24:01;;;;;;;24.23;13.68;;;;;;;0.44;87.03;99099.34;4899758;29;20040;-63
2021/12/07 18:26:28;;;;;;;26.08;13.18;;;;;;;0.45;87.34;99095.81;4885916;29;20669;-64
2021/12/07 18:28:53;;;;;;;26.23;12.65;;;;;;;0.44;87.17;99094.97;4905885;29;20600;-63
2021/12/07 18:31:19;;;;;;;25.83;12.63;;;;;;;0.46;87.26;99097.50;4889162;29;20103;-62
2021/12/07 18:33:48;;;;;;;22.55;11.73;;;;;;;0.45;86.97;99106.31;4904591;29;20414;-64
2021/12/07 18:36:16;;;;;;;25.52;11.50;;;;;;;0.43;86.69;99108.97;4888750;29;20067;-63
2021/12/07 18:38:47;;;;;;;28.63;12.05;;;;;;;0.41;86.82;99109.94;4906971;28;20058;-63
2021/12/07 18:41:19;;;;;;;23.25;9.95;;;;;;;0.42;86.60;99103.78;4892409;29;20130;-63
2021/12/07 18:43:46;;;;;;;20.92;11.50;;;;;;;0.41;86.54;99109.94;4906167;29;20593;-63
2021/12/07 18:46:13;;;;;;;22.73;11.98;;;;;;;0.41;86.39;99110.81;4907512;29;20869;-64
2021/12/07 18:48:39;;;;;;;24.02;12.23;;;;;;;0.43;86.73;99113.38;4902265;29;20043;-65
2021/12/07 18:51:09;;;;;;;26.23;12.50;;;;;;;0.43;86.66;99114.22;4891235;29;20049;-64
2021/12/07 18:53:35;;;;;;;28.75;12.27;;;;;;;0.41;86.53;99116.06;4874202;29;20091;-65
2021/12/07 18:56:13;;;;;;;32.85;12.23;;;;;;;0.41;86.42;99109.94;4909029;29;20058;-65
2021/12/07 18:58:42;;;;;;;27.88;13.48;;;;;;;0.28;86.37;99117.44;4852615;29;20470;-66
2021/12/07 19:01:16;;;;;;;19.75;11.02;;;;;;;0.30;86.29;99126.09;4909171;29;20595;-65
2021/12/07 19:03:43;;;;;;;23.00;12.85;;;;;;;0.28;86.34;99125.28;4909907;29;20048;-72
2021/12/07 19:06:11;;;;;;;27.83;13.27;;;;;;;0.20;86.39;99127.34;4893739;29;20047;-73
2021/12/07 19:08:38;;;;;;;26.63;13.73;;;;;;;0.17;86.17;99122.22;4877126;29;20055;-68
2021/12/07 19:11:03;;;;;;;28.38;14.23;;;;;;;0.19;86.30;99118.63;4908855;29;20094;-74
2021/12/07 19:13:30;;;;;;;34.75;16.60;;;;;;;0.16;86.42;99125.75;4889404;29;20051;-71
2021/12/07 19:15:55;;;;;;;37.30;17.52;;;;;;;0.14;86.16;99123.19;4905136;29;20046;-72
2021/12/07 19:18:22;;;;;;;29.52;15.20;;;;;;;0.11;86.15;99136.44;4900942;29;20061;-70
2021/12/07 19:20:48;;;;;;;30.33;17.08;;;;;;;0.10;86.03;99132.09;4883726;29;20407;-67
2021/12/07 19:23:17;;;;;;;24.17;12.80;;;;;;;0.15;85.95;99124.03;4868040;29;20187;-68
2021/12/07 19:25:44;;;;;;;28.02;15.43;;;;;;;0.11;85.63;99132.94;4836441;29;20081;-71
2021/12/07 19:28:13;;;;;;;23.50;13.10;;;;;;;0.13;85.56;99142.44;4900970;29;20478;-73
2021/12/07 19:30:39;;;;;;;24.05;14.00;;;;;;;0.11;85.60;99133.81;4900512;29;20522;-70
2021/12/07 19:33:06;;;;;;;24.55;12.18;;;;;;;0.17;85.53;99137.94;4900045;29;20074;-65
2021/12/07 19:35:37;;;;;;;21.50;11.82;;;;;;;0.19;85.99;99138.75;4901175;29;20043;-68
2021/12/07 19:38:04;;;;;;;23.15;13.48;;;;;;;0.17;85.46;99127.47;4884035;29;20138;-68
2021/12/07 19:40:34;;;;;;;20.50;11.27;;;;;;;0.16;85.55;99137.09;4869140;29;20047;-66
2021/12/07 19:43:18;;;;;;;15.25;9.63;;;;;;;0.25;85.36;99128.03;4885982;29;20529;-66
2021/12/07 19:45:45;;;;;;;15.85;9.38;;;;;;;0.20;84.91;99132.59;4872901;29;20055;-67
2021/12/07 19:48:13;;;;;;;17.88;10.27;;;;;;;0.21;84.75;99131.69;4869718;29;20098;-68
2021/12/07 19:50:45;;;;;;;18.58;11.02;;;;;;;0.18;84.49;99143.13;4900821;29;20103;-66
2021/12/07 19:53:14;;;;;;;18.75;11.23;;;;;;;0.12;83.84;99140.72;4852819;29;20055;-68
2021/12/07 19:55:41;;;;;;;20.85;10.27;;;;;;;0.12;84.01;99147.75;4884146;29;20040;-67
2021/12/07 19:58:06;;;;;;;19.98;10.90;;;;;;;0.12;83.88;99151.22;4901374;29;20526;-67
2021/12/07 20:00:36;;;;;;;24.58;11.63;;;;;;;0.11;83.47;99154.78;4901769;29;20061;-66
2021/12/07 20:03:03;;;;;;;19.17;11.32;;;;;;;0.15;83.32;99156.34;4902706;29;20106;-66
2021/12/07 20:05:28;;;;;;;27.02;11.98;;;;;;;0.18;83.49;99147.53;4852199;29;20044;-70
2021/12/07 20:07:58;;;;;;;22.77;12.95;;;;;;;0.15;83.50;99158.13;4884708;29;20453;-66
2021/12/07 20:10:25;;;;;;;27.08;14.63;;;;;;;0.10;82.79;99163.53;4904259;29;20044;-66
2021/12/07 20:12:51;;;;;;;24.73;15.23;;;;;;;0.10;82.82;99155.69;4914871;29;20051;-67
2021/12/07 20:15:16;;;;;;;25.88;14.43;;;;;;;0.08;82.37;99160.13;4893797;29;20048;-66